In Rescue
 
Open Full Screen Window  High Contrast Mode
Wind Gusting 00 knots
04
October 19, 2020 8:50 PM EDT
Present Weather: Drizzle
Weather Information
Wind Direction
  340 °
Wind Speed
  04 kt (5 mph)
Wind Gust
  00 kt (0 mph)
Altimeter
30.21 in
Visibility
10 SM
Temperature
06° C
43° F
Dewpoint
05° C
41° F
Humidity
93%
Sky Condition
Overcast @ 5,000 ft
VFR

METAR KPHN 200050Z AUTO 34004KT 10SM DZ OVC050 06/05 A3021 RMK AO2

FAA Disclaimer: The data displayed is for advisory purposes only and is not to be used for flight planning or operations.